Swain, NY (14884)

7:26 PM EST on January 29, 2015 (GMT -0500)
Dalton | Change Station
CLOSE
Current Station
Personal Weather Station
Location: Dalton, NY
Elevation: 1913 ft
Nearby Weather Stations

Elev 1913 ft 42.51 °N, 77.92 °W | Updated 13 minutes ago

Overcast
Overcast
26.6 °F
Feels Like 18 °F
N
9.0
Wind Variable Wind from South
Gusts 13.0 mph

Today
High -- | Low -- °F
--% Chance of Precip.
Yesterday
High -- | Low -- °F
Precip. -- in
7:28 AM 5:21 PM
Waxing Gibbous, 78% visible
Pressure 29.84 in
Visibility 8.0 miles
Clouds Overcast 5500 ft
Windchill 18 °F
Dew Point 24 °F
Humidity 90%
Rainfall 0.00 in
Snow Depth Not available.
UV 0 out of 12
Pollen .10 out of 12
Air Quality Not available.
Flu Activity Not available.
METAR KDSV 292354Z AUTO 15010G18KT 8SM -SN OVC055 M01/M06 A2979 RMK AO2 SNE2258B52 SLP105 P0000 60000 T10111056 10028 21011 55000

More Conditions Fewer Conditions

Pressure 29.84 in
Visibility 8.0 miles
Clouds Overcast 5500 ft
Windchill 18 °F
Dew Point 24 °F
Humidity 90%
Rainfall 0.00 in
Snow Depth Not available.
UV 0 out of 12
Pollen .10 out of 12
Air Quality Not available.
Flu Activity Not available.
METAR KDSV 292354Z AUTO 15010G18KT 8SM -SN OVC055 M01/M06 A2979 RMK AO2 SNE2258B52 SLP105 P0000 60000 T10111056 10028 21011 55000

More Conditions Fewer Conditions

10-Day Weather Forecast

Almanac

Astronomy

Jan. 29, 2015 Rise Set
Actual Time
Civil Twilight
Nautical Twilight
Astronomical Twilight
Moon
Length of Visible Light
Length of Day
Tomorrow will be .
, % of the Moon is Illuminated

Today's Extremes

State Highs State Lows

Community

WunderPhotos

Upload Photos

1,791,651 photos uploaded!

WunderBlogs® & News

Nearby

Air Quality

  Air Quality AQ Index Pollutant
Not available.

Snow Depth

Station Depth Elevation

Earthquake Activity

City Distance Mag. Time & Date
Minimum magnitude displayed is 2.5.

Coastal Water Temperatures

Place Temperature

Nearby Weather Stations